Time;durP1;ratioP1;P1;durP2;ratioP2;P2;SDS_P1;SDS_P2;PMS_P1;PMS_P2;Temp;Humidity;BMP_temperature;BMP_pressure;BME280_temperature;BME280_humidity;BME280_pressure;Samples;Min_cycle;Max_cycle;Signal;HPM_P1;HPM_P2
2023/04/06 00:01:02;;;;;;;26.40;13.50;;;;;;;;;;5012656;28;20034;-71
2023/04/06 00:03:27;;;;;;;26.53;14.53;;;;;;;;;;5013476;28;20025;-72
2023/04/06 00:05:53;;;;;;;30.37;14.77;;;;;;;;;;5012545;28;20042;-73
2023/04/06 00:08:21;;;;;;;31.87;15.83;;;;;;;;;;5012223;28;20401;-73
2023/04/06 00:10:46;;;;;;;33.03;16.63;;;;;;;;;;5012347;28;20018;-74
2023/04/06 00:13:12;;;;;;;34.77;15.17;;;;;;;;;;5012337;28;20034;-72
2023/04/06 00:15:37;;;;;;;35.00;16.40;;;;;;;;;;5010858;28;20033;-73
2023/04/06 00:18:03;;;;;;;34.97;16.70;;;;;;;;;;5011036;28;20393;-72
2023/04/06 00:20:28;;;;;;;36.10;15.90;;;;;;;;;;5011820;28;20021;-72
2023/04/06 00:22:55;;;;;;;36.17;16.53;;;;;;;;;;5012044;28;20432;-73
2023/04/06 00:25:20;;;;;;;30.80;16.37;;;;;;;;;;5011899;28;20064;-73
2023/04/06 00:27:46;;;;;;;32.07;15.63;;;;;;;;;;5011349;28;20049;-72
2023/04/06 00:30:11;;;;;;;28.73;15.63;;;;;;;;;;5012070;28;20072;-72
2023/04/06 00:32:37;;;;;;;30.77;15.30;;;;;;;;;;5010197;28;20022;-72
2023/04/06 00:35:04;;;;;;;35.80;16.43;;;;;;;;;;5011886;28;20029;-72
2023/04/06 00:37:29;;;;;;;31.13;16.83;;;;;;;;;;5011763;28;20030;-72
2023/04/06 00:39:55;;;;;;;32.47;16.13;;;;;;;;;;5019491;28;20029;-71
2023/04/06 00:42:25;;;;;;;38.00;15.93;;;;;;;;;;5031391;28;20033;-72
2023/04/06 00:44:59;;;;;;;36.90;15.73;;;;;;;;;;5031765;28;20033;-72
2023/04/06 00:47:25;;;;;;;27.10;16.17;;;;;;;;;;5031086;28;20025;-72
2023/04/06 00:49:54;;;;;;;37.33;17.40;;;;;;;;;;5029825;28;20048;-72
2023/04/06 00:52:20;;;;;;;30.83;16.17;;;;;;;;;;5031323;28;20557;-72
2023/04/06 00:54:46;;;;;;;37.43;18.03;;;;;;;;;;5029541;28;20095;-73
2023/04/06 00:57:12;;;;;;;36.53;18.47;;;;;;;;;;5031083;28;20033;-71
2023/04/06 00:59:39;;;;;;;39.50;17.60;;;;;;;;;;5028774;28;20021;-72
2023/04/06 01:02:04;;;;;;;31.97;16.50;;;;;;;;;;5031062;28;20366;-73
2023/04/06 01:04:31;;;;;;;40.70;18.40;;;;;;;;;;5031387;28;20036;-72
2023/04/06 01:06:56;;;;;;;34.30;18.30;;;;;;;;;;5031208;28;20305;-73
2023/04/06 01:09:22;;;;;;;35.27;17.80;;;;;;;;;;5031239;28;20026;-72
2023/04/06 01:11:47;;;;;;;31.50;15.80;;;;;;;;;;5030424;28;20164;-72
2023/04/06 01:14:13;;;;;;;39.40;17.90;;;;;;;;;;5031091;28;20042;-73
2023/04/06 01:16:38;;;;;;;39.73;18.30;;;;;;;;;;5030716;28;20026;-72
2023/04/06 01:19:11;;;;;;;40.10;18.33;;;;;;;;;;5030644;28;20036;-73
2023/04/06 01:21:37;;;;;;;35.50;17.37;;;;;;;;;;5029050;28;20037;-72
2023/04/06 01:24:03;;;;;;;37.47;18.17;;;;;;;;;;5029927;28;20036;-71
2023/04/06 01:26:29;;;;;;;38.20;17.50;;;;;;;;;;5030191;28;20416;-73
2023/04/06 01:28:55;;;;;;;39.20;18.43;;;;;;;;;;5029147;28;20027;-72
2023/04/06 01:31:21;;;;;;;41.47;19.17;;;;;;;;;;5028016;28;20376;-72
2023/04/06 01:33:46;;;;;;;38.07;18.03;;;;;;;;;;5029077;28;20079;-72
2023/04/06 01:36:12;;;;;;;37.60;18.40;;;;;;;;;;5028875;28;20381;-73
2023/04/06 01:38:38;;;;;;;39.00;18.57;;;;;;;;;;5029881;28;20087;-73
2023/04/06 01:41:03;;;;;;;42.90;18.53;;;;;;;;;;5028609;28;20599;-72
2023/04/06 01:43:29;;;;;;;53.53;20.30;;;;;;;;;;5028904;28;20095;-72
2023/04/06 01:45:55;;;;;;;40.20;19.00;;;;;;;;;;5030305;28;20108;-73
2023/04/06 01:48:22;;;;;;;36.47;17.97;;;;;;;;;;5028878;28;20049;-73
2023/04/06 01:50:47;;;;;;;41.47;19.70;;;;;;;;;;5029965;28;20108;-72
2023/04/06 01:53:13;;;;;;;38.23;18.53;;;;;;;;;;5029041;28;20665;-73
2023/04/06 01:55:38;;;;;;;45.63;19.40;;;;;;;;;;5029770;28;20022;-72
2023/04/06 01:58:04;;;;;;;40.47;18.70;;;;;;;;;;5030095;28;20025;-73
2023/04/06 02:00:30;;;;;;;41.40;19.53;;;;;;;;;;5030182;28;20332;-73
2023/04/06 02:02:55;;;;;;;47.10;19.63;;;;;;;;;;5029194;28;20060;-72
2023/04/06 02:05:21;;;;;;;38.63;19.20;;;;;;;;;;5028690;28;20052;-72
2023/04/06 02:07:46;;;;;;;35.40;17.40;;;;;;;;;;5028433;28;20083;-72
2023/04/06 02:10:14;;;;;;;35.43;17.93;;;;;;;;;;5029124;28;20030;-73
2023/04/06 02:12:39;;;;;;;42.10;18.57;;;;;;;;;;5029825;28;20025;-71
2023/04/06 02:15:05;;;;;;;36.23;17.97;;;;;;;;;;5029866;28;20082;-72
2023/04/06 02:17:30;;;;;;;44.37;18.97;;;;;;;;;;5028808;28;20520;-72
2023/04/06 02:19:56;;;;;;;40.77;18.73;;;;;;;;;;5030029;28;20095;-72
2023/04/06 02:22:21;;;;;;;35.73;18.17;;;;;;;;;;5029551;28;20049;-72
2023/04/06 02:24:47;;;;;;;40.63;17.27;;;;;;;;;;5029557;28;20225;-72
2023/04/06 02:27:14;;;;;;;43.27;17.83;;;;;;;;;;5030074;28;20166;-72
2023/04/06 02:29:42;;;;;;;44.77;17.67;;;;;;;;;;5029814;28;20045;-73
2023/04/06 02:32:07;;;;;;;38.30;18.67;;;;;;;;;;5029435;28;20236;-72
2023/04/06 02:34:33;;;;;;;38.60;16.97;;;;;;;;;;5029136;28;20096;-73
2023/04/06 02:36:58;;;;;;;34.87;16.90;;;;;;;;;;5029739;28;20465;-72
2023/04/06 02:39:24;;;;;;;37.43;15.70;;;;;;;;;;5024847;28;20453;-72
2023/04/06 02:41:49;;;;;;;39.17;17.20;;;;;;;;;;5008113;28;20026;-72
2023/04/06 02:44:15;;;;;;;40.87;17.17;;;;;;;;;;5008334;28;20522;-72
2023/04/06 02:46:40;;;;;;;37.87;17.87;;;;;;;;;;5009473;28;20058;-71
2023/04/06 02:49:06;;;;;;;34.70;17.30;;;;;;;;;;5010119;28;20033;-73
2023/04/06 02:51:31;;;;;;;35.47;17.80;;;;;;;;;;5010171;28;20343;-72
2023/04/06 02:53:57;;;;;;;32.87;16.70;;;;;;;;;;5008997;28;20036;-72
2023/04/06 02:56:22;;;;;;;30.57;17.47;;;;;;;;;;5010448;28;20409;-72
2023/04/06 02:58:48;;;;;;;37.57;17.30;;;;;;;;;;5010055;28;20034;-72
2023/04/06 03:01:13;;;;;;;43.57;16.73;;;;;;;;;;5008789;28;20084;-73
2023/04/06 03:03:39;;;;;;;35.57;16.40;;;;;;;;;;5007983;28;20504;-71
2023/04/06 03:06:04;;;;;;;38.20;16.37;;;;;;;;;;5009614;28;20040;-73
2023/04/06 03:08:30;;;;;;;37.57;17.37;;;;;;;;;;5009966;28;20033;-72
2023/04/06 03:10:56;;;;;;;46.10;18.27;;;;;;;;;;5008018;28;20037;-72
2023/04/06 03:13:21;;;;;;;38.33;17.17;;;;;;;;;;5008144;28;20037;-71
2023/04/06 03:15:47;;;;;;;36.40;18.20;;;;;;;;;;5008485;28;20094;-73
2023/04/06 03:18:12;;;;;;;30.83;15.43;;;;;;;;;;5009373;28;20068;-73
2023/04/06 03:20:38;;;;;;;44.23;16.93;;;;;;;;;;5009210;28;20139;-73
2023/04/06 03:23:04;;;;;;;37.73;17.70;;;;;;;;;;5011300;28;20204;-72
2023/04/06 03:25:30;;;;;;;32.37;14.70;;;;;;;;;;5012972;28;20029;-72
2023/04/06 03:27:55;;;;;;;32.37;15.60;;;;;;;;;;5012727;28;20698;-72
2023/04/06 03:30:21;;;;;;;27.87;13.73;;;;;;;;;;5012855;28;20444;-72
2023/04/06 03:32:46;;;;;;;35.77;15.40;;;;;;;;;;5012677;28;20033;-73
2023/04/06 03:35:12;;;;;;;31.47;15.27;;;;;;;;;;5012803;28;20036;-73
2023/04/06 03:37:38;;;;;;;41.40;16.20;;;;;;;;;;5013939;28;20070;-72
2023/04/06 03:40:04;;;;;;;29.50;14.80;;;;;;;;;;5012180;28;20041;-71
2023/04/06 03:42:30;;;;;;;35.70;14.67;;;;;;;;;;5013743;28;20021;-73
2023/04/06 03:44:56;;;;;;;38.37;15.87;;;;;;;;;;5012937;28;20193;-72
2023/04/06 03:47:22;;;;;;;33.63;15.57;;;;;;;;;;5013378;28;20026;-72
2023/04/06 03:49:48;;;;;;;39.07;16.00;;;;;;;;;;5013648;28;20226;-72
2023/04/06 03:52:13;;;;;;;36.77;16.07;;;;;;;;;;5013709;28;20474;-71
2023/04/06 03:54:39;;;;;;;39.13;17.30;;;;;;;;;;5011228;28;20025;-72
2023/04/06 03:57:04;;;;;;;30.53;15.43;;;;;;;;;;5013881;28;20033;-71
2023/04/06 03:59:30;;;;;;;31.67;15.13;;;;;;;;;;5012204;28;20026;-71
2023/04/06 04:01:55;;;;;;;31.60;15.97;;;;;;;;;;5012134;28;20033;-72
2023/04/06 04:04:21;;;;;;;29.40;15.90;;;;;;;;;;5013424;28;20109;-71
2023/04/06 04:06:46;;;;;;;34.10;17.70;;;;;;;;;;5013444;28;20077;-72
2023/04/06 04:09:12;;;;;;;35.20;16.33;;;;;;;;;;5013110;28;20024;-72
2023/04/06 04:11:38;;;;;;;36.43;16.53;;;;;;;;;;5011374;28;20426;-73
2023/04/06 04:14:03;;;;;;;35.13;16.77;;;;;;;;;;5012028;28;20037;-72
2023/04/06 04:16:29;;;;;;;36.20;17.30;;;;;;;;;;5011875;28;20125;-71
2023/04/06 04:18:57;;;;;;;33.13;17.03;;;;;;;;;;5012581;28;20029;-73
2023/04/06 04:21:23;;;;;;;33.60;15.03;;;;;;;;;;5011201;28;20026;-73
2023/04/06 04:23:48;;;;;;;34.33;15.80;;;;;;;;;;5012799;28;20045;-73
2023/04/06 04:26:14;;;;;;;28.73;14.47;;;;;;;;;;5012504;28;20026;-73
2023/04/06 04:28:40;;;;;;;33.37;15.03;;;;;;;;;;5012128;28;20018;-73
2023/04/06 04:31:05;;;;;;;31.83;15.67;;;;;;;;;;5012048;28;20022;-73
2023/04/06 04:33:31;;;;;;;40.97;17.63;;;;;;;;;;5010016;28;20045;-73
2023/04/06 04:35:56;;;;;;;35.87;16.13;;;;;;;;;;5009070;28;20029;-72
2023/04/06 04:38:22;;;;;;;27.17;14.67;;;;;;;;;;5010188;28;20064;-72
2023/04/06 04:40:47;;;;;;;31.40;15.00;;;;;;;;;;5026065;28;20021;-72
2023/04/06 04:43:13;;;;;;;32.10;15.03;;;;;;;;;;5029986;28;20404;-73
2023/04/06 04:45:38;;;;;;;35.73;15.47;;;;;;;;;;5024890;28;20036;-72
2023/04/06 04:48:05;;;;;;;34.07;16.77;;;;;;;;;;5017039;28;21467;-71
2023/04/06 04:50:31;;;;;;;32.87;14.10;;;;;;;;;;5011308;28;20394;-73
2023/04/06 04:52:56;;;;;;;40.37;15.90;;;;;;;;;;5019491;28;20029;-72
2023/04/06 04:55:22;;;;;;;40.23;18.93;;;;;;;;;;5008741;28;20654;-75
2023/04/06 04:57:47;;;;;;;47.87;19.77;;;;;;;;;;5011502;28;20022;-74
2023/04/06 05:00:14;;;;;;;42.03;17.13;;;;;;;;;;5026480;28;20075;-73
2023/04/06 05:02:39;;;;;;;30.67;14.67;;;;;;;;;;5012265;28;20426;-73
2023/04/06 05:05:05;;;;;;;36.40;16.30;;;;;;;;;;5010033;28;20033;-73
2023/04/06 05:07:31;;;;;;;33.17;16.90;;;;;;;;;;5011960;28;20038;-73
2023/04/06 05:09:57;;;;;;;35.93;14.37;;;;;;;;;;5014763;28;20110;-73
2023/04/06 05:12:22;;;;;;;27.57;13.63;;;;;;;;;;5013474;28;20037;-72
2023/04/06 05:14:48;;;;;;;30.63;15.90;;;;;;;;;;5024168;28;20029;-74
2023/04/06 05:17:13;;;;;;;33.43;15.07;;;;;;;;;;5017500;28;20026;-73
2023/04/06 05:19:39;;;;;;;33.37;15.40;;;;;;;;;;5009368;28;20433;-73
2023/04/06 05:22:04;;;;;;;32.10;16.37;;;;;;;;;;5005416;28;20046;-74
2023/04/06 05:24:30;;;;;;;35.40;16.23;;;;;;;;;;5008862;28;20048;-74
2023/04/06 05:26:55;;;;;;;28.50;15.20;;;;;;;;;;5011295;28;20064;-74
2023/04/06 05:29:21;;;;;;;31.20;15.50;;;;;;;;;;5009624;28;20526;-73
2023/04/06 05:31:47;;;;;;;26.53;14.77;;;;;;;;;;5010485;28;20117;-73
2023/04/06 05:34:12;;;;;;;34.83;16.50;;;;;;;;;;5011545;28;20022;-74
2023/04/06 05:36:38;;;;;;;27.97;16.00;;;;;;;;;;5012216;28;20143;-74
2023/04/06 05:39:04;;;;;;;29.43;15.77;;;;;;;;;;5011085;28;20030;-73
2023/04/06 05:41:30;;;;;;;29.47;14.73;;;;;;;;;;5010861;28;20037;-73
2023/04/06 05:43:55;;;;;;;33.10;17.23;;;;;;;;;;5022779;28;20045;-74
2023/04/06 05:46:21;;;;;;;34.97;17.27;;;;;;;;;;5018794;28;20113;-75
2023/04/06 05:48:46;;;;;;;31.67;16.57;;;;;;;;;;5010781;28;20033;-75
2023/04/06 05:51:12;;;;;;;32.33;15.67;;;;;;;;;;5009580;28;20026;-75
2023/04/06 05:53:37;;;;;;;35.37;16.90;;;;;;;;;;5008812;28;20064;-74
2023/04/06 05:56:03;;;;;;;30.93;17.00;;;;;;;;;;5013894;28;20091;-75
2023/04/06 05:58:29;;;;;;;33.77;16.70;;;;;;;;;;5013390;28;20135;-75
2023/04/06 06:01:02;;;;;;;34.53;15.80;;;;;;;;;;5017552;28;20371;-74
2023/04/06 06:03:28;;;;;;;30.97;14.87;;;;;;;;;;5020113;28;20450;-74
2023/04/06 06:05:54;;;;;;;31.50;14.50;;;;;;;;;;5019177;28;20107;-74
2023/04/06 06:08:19;;;;;;;30.27;15.33;;;;;;;;;;5024022;28;20030;-73
2023/04/06 06:10:45;;;;;;;39.20;16.83;;;;;;;;;;5011770;28;20060;-74
2023/04/06 06:13:10;;;;;;;35.13;16.23;;;;;;;;;;5020316;28;20493;-75
2023/04/06 06:15:36;;;;;;;36.47;17.07;;;;;;;;;;5018781;28;20033;-74
2023/04/06 06:18:01;;;;;;;35.73;15.50;;;;;;;;;;5019345;28;20370;-73
2023/04/06 06:20:27;;;;;;;32.73;16.73;;;;;;;;;;5023350;28;20044;-74
2023/04/06 06:22:53;;;;;;;28.73;15.93;;;;;;;;;;5024026;28;20130;-73
2023/04/06 06:25:18;;;;;;;30.87;15.47;;;;;;;;;;5014511;28;20113;-73
2023/04/06 06:27:44;;;;;;;37.27;15.53;;;;;;;;;;5017519;28;20071;-72
2023/04/06 06:30:10;;;;;;;35.37;16.43;;;;;;;;;;5018052;28;20033;-74
2023/04/06 06:32:35;;;;;;;35.33;17.33;;;;;;;;;;5017599;28;20026;-73
2023/04/06 06:35:01;;;;;;;34.30;16.00;;;;;;;;;;5018018;28;20416;-74
2023/04/06 06:37:26;;;;;;;34.40;17.37;;;;;;;;;;5012727;28;21041;-76
2023/04/06 06:39:52;;;;;;;33.70;16.33;;;;;;;;;;5008929;28;20025;-74
2023/04/06 06:42:17;;;;;;;26.13;15.40;;;;;;;;;;5012913;28;20523;-74
2023/04/06 06:44:43;;;;;;;26.30;16.27;;;;;;;;;;5018498;28;20065;-75
2023/04/06 06:47:08;;;;;;;42.20;17.80;;;;;;;;;;5004263;28;20034;-74
2023/04/06 06:49:34;;;;;;;34.93;18.73;;;;;;;;;;5007342;28;20094;-74
2023/04/06 06:51:59;;;;;;;42.27;18.07;;;;;;;;;;5007846;28;20037;-73
2023/04/06 06:54:25;;;;;;;41.00;18.50;;;;;;;;;;5008110;28;20405;-74
2023/04/06 06:56:50;;;;;;;38.50;18.03;;;;;;;;;;5003511;28;20086;-73
2023/04/06 06:59:16;;;;;;;30.23;16.37;;;;;;;;;;5006956;28;20057;-76
2023/04/06 07:01:42;;;;;;;41.43;17.83;;;;;;;;;;5009457;28;20029;-75
2023/04/06 07:04:08;;;;;;;34.67;18.73;;;;;;;;;;5012933;28;20038;-73
2023/04/06 07:06:45;;;;;;;36.83;16.77;;;;;;;;;;5014762;28;20360;-74
2023/04/06 07:09:11;;;;;;;31.07;16.60;;;;;;;;;;5015173;28;20429;-74
2023/04/06 07:11:37;;;;;;;34.73;18.80;;;;;;;;;;5024482;28;20033;-74
2023/04/06 07:14:02;;;;;;;32.00;17.70;;;;;;;;;;5007323;28;20129;-75
2023/04/06 07:16:28;;;;;;;32.27;17.33;;;;;;;;;;5008913;28;20030;-72
2023/04/06 07:18:53;;;;;;;31.30;14.93;;;;;;;;;;5013960;28;20037;-73
2023/04/06 07:21:19;;;;;;;26.23;14.40;;;;;;;;;;5025616;28;20033;-73
2023/04/06 07:23:44;;;;;;;21.93;13.83;;;;;;;;;;5008087;28;20096;-72
2023/04/06 07:26:10;;;;;;;19.27;13.23;;;;;;;;;;5006138;28;20038;-74
2023/04/06 07:28:36;;;;;;;27.00;14.30;;;;;;;;;;5005376;28;20120;-73
2023/04/06 07:31:01;;;;;;;30.33;13.23;;;;;;;;;;5010403;28;20037;-76
2023/04/06 07:33:29;;;;;;;29.40;14.53;;;;;;;;;;5017257;28;20469;-73
2023/04/06 07:35:56;;;;;;;25.53;15.23;;;;;;;;;;5011546;28;20658;-73
2023/04/06 07:38:22;;;;;;;25.83;14.07;;;;;;;;;;5009563;28;20039;-74
2023/04/06 07:40:47;;;;;;;27.73;13.00;;;;;;;;;;5008213;28;20474;-74
2023/04/06 07:43:13;;;;;;;21.37;11.83;;;;;;;;;;5014639;28;20045;-75
2023/04/06 07:45:38;;;;;;;25.40;12.83;;;;;;;;;;5037896;28;20441;-73
2023/04/06 07:48:04;;;;;;;25.93;12.10;;;;;;;;;;5023783;28;20044;-74
2023/04/06 07:50:29;;;;;;;24.33;12.00;;;;;;;;;;5026262;28;20021;-75
2023/04/06 07:52:57;;;;;;;24.13;10.90;;;;;;;;;;5015023;28;20374;-74
2023/04/06 07:55:24;;;;;;;22.10;11.67;;;;;;;;;;5008899;28;20037;-75
2023/04/06 07:57:50;;;;;;;23.37;12.00;;;;;;;;;;5011489;28;20033;-75
2023/04/06 08:00:16;;;;;;;19.97;11.40;;;;;;;;;;5013099;28;20045;-72
2023/04/06 08:02:41;;;;;;;20.63;11.33;;;;;;;;;;5012949;28;20029;-75
2023/04/06 08:05:07;;;;;;;16.70;10.87;;;;;;;;;;5005714;28;20469;-74
2023/04/06 08:07:33;;;;;;;19.17;11.00;;;;;;;;;;5009531;28;20201;-74
2023/04/06 08:09:58;;;;;;;18.00;11.00;;;;;;;;;;5017434;28;20614;-74
2023/04/06 08:12:24;;;;;;;15.57;9.63;;;;;;;;;;5007721;28;20041;-73
2023/04/06 08:14:49;;;;;;;21.33;10.70;;;;;;;;;;5013366;28;20124;-74
2023/04/06 08:17:15;;;;;;;22.60;11.03;;;;;;;;;;5009771;28;20045;-74
2023/04/06 08:19:43;;;;;;;19.67;11.33;;;;;;;;;;5011080;28;20449;-73
2023/04/06 08:22:09;;;;;;;19.10;10.83;;;;;;;;;;5004582;28;20082;-74
2023/04/06 08:24:35;;;;;;;19.87;10.93;;;;;;;;;;5010269;28;20486;-75
2023/04/06 08:27:00;;;;;;;32.43;11.37;;;;;;;;;;5004405;28;20053;-73
2023/04/06 08:29:26;;;;;;;17.90;11.17;;;;;;;;;;5023626;28;20099;-74
2023/04/06 08:31:51;;;;;;;21.40;10.53;;;;;;;;;;5009508;28;20105;-73
2023/04/06 08:34:17;;;;;;;15.70;10.97;;;;;;;;;;5022325;28;20084;-73
2023/04/06 08:36:42;;;;;;;32.77;12.87;;;;;;;;;;5018514;28;20049;-74
2023/04/06 08:39:08;;;;;;;24.27;13.30;;;;;;;;;;5014414;28;20389;-74
2023/04/06 08:41:34;;;;;;;18.00;11.30;;;;;;;;;;5020978;28;20063;-75
2023/04/06 08:44:01;;;;;;;21.70;10.27;;;;;;;;;;5025204;28;20053;-73
2023/04/06 08:46:29;;;;;;;21.47;10.47;;;;;;;;;;5029565;28;20041;-73
2023/04/06 08:48:57;;;;;;;22.93;10.87;;;;;;;;;;5023780;28;20030;-75
2023/04/06 08:51:26;;;;;;;23.63;12.00;;;;;;;;;;5028657;28;20030;-73
2023/04/06 08:53:56;;;;;;;20.90;11.30;;;;;;;;;;5020836;28;20125;-73
2023/04/06 08:56:23;;;;;;;18.23;10.47;;;;;;;;;;5018664;28;20034;-73
2023/04/06 08:58:49;;;;;;;21.90;10.57;;;;;;;;;;5010100;28;20034;-73
2023/04/06 09:01:20;;;;;;;20.13;11.57;;;;;;;;;;5017472;28;20030;-73
2023/04/06 09:03:46;;;;;;;21.00;10.20;;;;;;;;;;5028451;28;20037;-74
2023/04/06 09:06:13;;;;;;;21.20;10.17;;;;;;;;;;5026386;28;20045;-73
2023/04/06 09:08:40;;;;;;;21.97;10.87;;;;;;;;;;5014405;28;20080;-75
2023/04/06 09:11:07;;;;;;;15.60;9.80;;;;;;;;;;5018257;28;20037;-73
2023/04/06 09:13:55;;;;;;;21.17;10.17;;;;;;;;;;5016239;28;20047;-75
2023/04/06 09:16:21;;;;;;;17.20;9.60;;;;;;;;;;5014364;28;20044;-74
2023/04/06 09:18:48;;;;;;;17.87;9.80;;;;;;;;;;5010766;28;20513;-73
2023/04/06 09:21:18;;;;;;;21.80;10.73;;;;;;;;;;5019087;28;20141;-73
2023/04/06 09:23:44;;;;;;;10.77;7.47;;;;;;;;;;5023269;28;20195;-74
2023/04/06 09:26:12;;;;;;;9.97;6.57;;;;;;;;;;5013731;28;20486;-73
2023/04/06 09:28:57;;;;;;;16.57;8.60;;;;;;;;;;5016154;28;20032;-75
2023/04/06 09:31:29;;;;;;;14.93;7.20;;;;;;;;;;5008178;28;20151;-74
2023/04/06 09:33:55;;;;;;;14.38;8.52;;;;;;;;;;5016952;28;20060;-74
2023/04/06 09:36:31;;;;;;;16.37;8.00;;;;;;;;;;5027404;28;20342;-75
2023/04/06 09:38:59;;;;;;;16.13;7.53;;;;;;;;;;5018899;28;20033;-73
2023/04/06 09:41:26;;;;;;;10.57;6.93;;;;;;;;;;5015928;28;20036;-74
2023/04/06 09:44:01;;;;;;;12.03;7.27;;;;;;;;;;5012552;28;20470;-74
2023/04/06 09:46:29;;;;;;;17.23;8.32;;;;;;;;;;5023323;28;20452;-73
2023/04/06 09:48:55;;;;;;;14.60;7.93;;;;;;;;;;5016114;28;20052;-76
2023/04/06 09:51:21;;;;;;;20.63;8.37;;;;;;;;;;5013063;28;20061;-73
2023/04/06 09:53:52;;;;;;;14.30;7.40;;;;;;;;;;5017280;28;20129;-74
2023/04/06 09:56:23;;;;;;;17.85;7.93;;;;;;;;;;5013950;28;20033;-74
2023/04/06 09:58:52;;;;;;;17.15;7.88;;;;;;;;;;5009820;28;20041;-74
2023/04/06 10:01:20;;;;;;;11.68;6.47;;;;;;;;;;5019157;28;20044;-74
2023/04/06 10:03:56;;;;;;;9.63;6.70;;;;;;;;;;5023065;28;20076;-72
2023/04/06 10:06:25;;;;;;;14.93;7.32;;;;;;;;;;5020594;28;20037;-72
2023/04/06 10:08:54;;;;;;;9.88;5.78;;;;;;;;;;5014342;28;20032;-73
2023/04/06 10:11:19;;;;;;;15.38;7.47;;;;;;;;;;5022497;28;20449;-73
2023/04/06 10:13:47;;;;;;;12.02;5.93;;;;;;;;;;5020512;28;20153;-73
2023/04/06 10:16:15;;;;;;;9.30;6.43;;;;;;;;;;5019522;28;20043;-73
2023/04/06 10:18:46;;;;;;;13.32;6.35;;;;;;;;;;5021996;28;20124;-73
2023/04/06 10:21:15;;;;;;;11.20;5.88;;;;;;;;;;5025159;28;20453;-74
2023/04/06 10:24:01;;;;;;;9.98;5.50;;;;;;;;;;5015027;28;20049;-75
2023/04/06 10:26:27;;;;;;;13.65;6.47;;;;;;;;;;5010474;28;20079;-74
2023/04/06 10:28:52;;;;;;;7.78;5.30;;;;;;;;;;5018737;28;20144;-73
2023/04/06 10:31:28;;;;;;;11.02;6.80;;;;;;;;;;5019827;28;20438;-73
2023/04/06 10:34:01;;;;;;;11.82;6.32;;;;;;;;;;5015311;28;20025;-72
2023/04/06 10:36:31;;;;;;;7.90;5.28;;;;;;;;;;5012777;28;20033;-74
2023/04/06 10:39:03;;;;;;;12.30;6.35;;;;;;;;;;5032160;28;20038;-74
2023/04/06 10:41:32;;;;;;;;;;;;;;;;;;5017732;28;20033;-73
2023/04/06 10:43:59;;;;;;;9.38;5.50;;;;;;;;;;5019856;28;19980;-73
2023/04/06 10:46:26;;;;;;;12.13;6.93;;;;;;;;;;5026118;28;20061;-73
2023/04/06 10:48:52;;;;;;;11.07;6.00;;;;;;;;;;5021961;28;20044;-73
2023/04/06 10:51:20;;;;;;;11.55;6.28;;;;;;;;;;5018182;28;20030;-74
2023/04/06 10:53:48;;;;;;;9.50;5.28;;;;;;;;;;5022529;28;20038;-74
2023/04/06 10:56:17;;;;;;;6.97;5.53;;;;;;;;;;5021278;28;20030;-71
2023/04/06 10:58:57;;;;;;;10.00;5.30;;;;;;;;;;5017426;28;20033;-73
2023/04/06 11:01:26;;;;;;;11.98;6.57;;;;;;;;;;5018374;28;20098;-72
2023/04/06 11:03:59;;;;;;;13.23;6.40;;;;;;;;;;5018762;28;20026;-73
2023/04/06 11:06:26;;;;;;;8.45;5.60;;;;;;;;;;5018834;28;20059;-74
2023/04/06 11:08:53;;;;;;;12.38;5.82;;;;;;;;;;5019190;28;20048;-74
2023/04/06 11:11:20;;;;;;;9.60;5.88;;;;;;;;;;5018588;28;20037;-74
2023/04/06 11:13:50;;;;;;;7.85;5.78;;;;;;;;;;5018366;28;20052;-74
2023/04/06 11:16:20;;;;;;;13.88;6.00;;;;;;;;;;5022238;28;20080;-74
2023/04/06 11:18:57;;;;;;;8.48;5.78;;;;;;;;;;5016137;28;20667;-72
2023/04/06 11:21:39;;;;;;;10.57;5.43;;;;;;;;;;5012002;28;20044;-76
2023/04/06 11:24:21;;;;;;;16.40;7.75;;;;;;;;;;5018558;28;20029;-74
2023/04/06 11:26:53;;;;;;;7.97;5.57;;;;;;;;;;5024910;28;20044;-73
2023/04/06 11:29:28;;;;;;;6.55;5.53;;;;;;;;;;5026259;28;20044;-74
2023/04/06 11:31:59;;;;;;;6.63;4.65;;;;;;;;;;5023938;28;20030;-74
2023/04/06 11:34:25;;;;;;;8.38;5.43;;;;;;;;;;5026384;28;20434;-74
2023/04/06 11:36:57;;;;;;;9.40;5.18;;;;;;;;;;5013090;28;20049;-74
2023/04/06 11:39:24;;;;;;;7.10;4.85;;;;;;;;;;5022395;28;20079;-74
2023/04/06 11:41:51;;;;;;;8.50;5.20;;;;;;;;;;5016849;28;20041;-73
2023/04/06 11:44:33;;;;;;;10.30;4.90;;;;;;;;;;5016945;28;20053;-73
2023/04/06 11:46:59;;;;;;;7.88;5.25;;;;;;;;;;5017621;28;20026;-74
2023/04/06 11:49:32;;;;;;;7.78;4.93;;;;;;;;;;5027893;28;20036;-75
2023/04/06 11:51:58;;;;;;;7.85;5.28;;;;;;;;;;5016260;28;20132;-73
2023/04/06 11:54:35;;;;;;;7.25;4.78;;;;;;;;;;5030126;28;20037;-73
2023/04/06 11:57:03;;;;;;;7.97;4.75;;;;;;;;;;5017341;28;20042;-73
2023/04/06 11:59:29;;;;;;;6.85;4.68;;;;;;;;;;5026360;28;20037;-72
2023/04/06 12:01:59;;;;;;;7.53;4.88;;;;;;;;;;5017427;28;20021;-73
2023/04/06 12:04:25;;;;;;;5.78;4.22;;;;;;;;;;5022280;28;20090;-73
2023/04/06 12:06:51;;;;;;;6.53;5.10;;;;;;;;;;5020135;28;20148;-74
2023/04/06 12:09:17;;;;;;;8.48;6.03;;;;;;;;;;5020077;28;20052;-73
2023/04/06 12:11:43;;;;;;;6.70;4.80;;;;;;;;;;5017556;28;20084;-73
2023/04/06 12:14:09;;;;;;;7.60;5.03;;;;;;;;;;5019399;28;20026;-73
2023/04/06 12:16:35;;;;;;;10.32;4.90;;;;;;;;;;5017578;28;20021;-73
2023/04/06 12:19:01;;;;;;;7.25;4.90;;;;;;;;;;5027352;28;20564;-73
2023/04/06 12:21:28;;;;;;;7.22;4.95;;;;;;;;;;5024937;28;20053;-74
2023/04/06 12:23:54;;;;;;;6.47;4.93;;;;;;;;;;5031723;28;20132;-74
2023/04/06 12:26:21;;;;;;;9.02;5.10;;;;;;;;;;5021615;28;20033;-74
2023/04/06 12:28:46;;;;;;;8.23;5.55;;;;;;;;;;5022037;28;20030;-75
2023/04/06 12:31:16;;;;;;;8.52;5.80;;;;;;;;;;5021633;28;20029;-73
2023/04/06 12:33:42;;;;;;;8.05;5.93;;;;;;;;;;5015788;28;20064;-75
2023/04/06 12:36:18;;;;;;;10.18;6.13;;;;;;;;;;5017020;28;20583;-74
2023/04/06 12:38:45;;;;;;;10.98;5.88;;;;;;;;;;5029260;28;20037;-75
2023/04/06 12:41:11;;;;;;;10.63;5.93;;;;;;;;;;5021957;28;20022;-75
2023/04/06 12:43:37;;;;;;;10.48;7.63;;;;;;;;;;5019280;28;20359;-72
2023/04/06 12:46:03;;;;;;;7.20;5.78;;;;;;;;;;5022314;28;20057;-74
2023/04/06 12:48:28;;;;;;;10.20;6.15;;;;;;;;;;5020167;28;20587;-75
2023/04/06 12:51:02;;;;;;;7.45;5.30;;;;;;;;;;5019884;28;20033;-74
2023/04/06 12:53:27;;;;;;;7.82;5.28;;;;;;;;;;5022672;28;20125;-75
2023/04/06 12:55:57;;;;;;;6.82;5.60;;;;;;;;;;5020698;28;20501;-74
2023/04/06 12:58:23;;;;;;;8.82;6.20;;;;;;;;;;5028817;28;20725;-76
2023/04/06 13:00:50;;;;;;;11.63;6.53;;;;;;;;;;5026525;28;20032;-74
2023/04/06 13:03:17;;;;;;;8.15;5.47;;;;;;;;;;5019135;28;20040;-74
2023/04/06 13:05:46;;;;;;;6.70;5.22;;;;;;;;;;5023745;28;20013;-75
2023/04/06 13:08:13;;;;;;;7.05;5.60;;;;;;;;;;5020816;28;20033;-75
2023/04/06 13:10:52;;;;;;;6.03;5.40;;;;;;;;;;5028848;28;20029;-75
2023/04/06 13:13:25;;;;;;;9.27;5.90;;;;;;;;;;5018843;28;20022;-75
2023/04/06 13:15:52;;;;;;;7.13;5.50;;;;;;;;;;5020952;28;20037;-74
2023/04/06 13:18:18;;;;;;;8.57;5.30;;;;;;;;;;5018877;28;20216;-75
2023/04/06 13:20:43;;;;;;;6.05;5.00;;;;;;;;;;5017397;28;20104;-74
2023/04/06 13:23:09;;;;;;;15.27;7.43;;;;;;;;;;5019689;28;20026;-73
2023/04/06 13:25:35;;;;;;;7.30;4.82;;;;;;;;;;5023058;28;20029;-74
2023/04/06 13:28:00;;;;;;;9.88;6.22;;;;;;;;;;5023002;28;20026;-72
2023/04/06 13:30:26;;;;;;;7.88;5.32;;;;;;;;;;5015042;28;20040;-74
2023/04/06 13:32:52;;;;;;;8.32;5.70;;;;;;;;;;5019642;28;20038;-74
2023/04/06 13:35:18;;;;;;;8.07;5.60;;;;;;;;;;5016756;28;20128;-74
2023/04/06 13:37:44;;;;;;;13.20;6.15;;;;;;;;;;5012649;28;20112;-76
2023/04/06 13:40:10;;;;;;;7.65;5.72;;;;;;;;;;5019187;28;20089;-75
2023/04/06 13:42:35;;;;;;;11.38;6.32;;;;;;;;;;5021169;28;20037;-75
2023/04/06 13:45:02;;;;;;;10.45;6.07;;;;;;;;;;5026258;28;20049;-74
2023/04/06 13:47:27;;;;;;;8.95;6.78;;;;;;;;;;5010387;28;20184;-74
2023/04/06 13:49:55;;;;;;;10.98;7.03;;;;;;;;;;5022053;28;20164;-75
2023/04/06 13:52:21;;;;;;;9.90;6.25;;;;;;;;;;5018841;28;20469;-74
2023/04/06 13:54:47;;;;;;;6.65;5.95;;;;;;;;;;5013560;28;20033;-76
2023/04/06 13:57:12;;;;;;;10.40;6.43;;;;;;;;;;5014746;28;20029;-74
2023/04/06 13:59:39;;;;;;;9.05;7.20;;;;;;;;;;5013143;28;20030;-74
2023/04/06 14:02:07;;;;;;;11.07;7.40;;;;;;;;;;5012314;28;20034;-74
2023/04/06 14:04:33;;;;;;;11.20;6.43;;;;;;;;;;5018352;28;20029;-74
2023/04/06 14:07:00;;;;;;;12.43;6.90;;;;;;;;;;5015299;28;20025;-74
2023/04/06 14:09:26;;;;;;;9.13;7.07;;;;;;;;;;5020625;28;20128;-75
2023/04/06 14:11:52;;;;;;;8.10;6.85;;;;;;;;;;5018711;28;20044;-74
2023/04/06 14:14:18;;;;;;;8.27;5.72;;;;;;;;;;5018109;28;20727;-74
2023/04/06 14:16:43;;;;;;;7.95;6.10;;;;;;;;;;5021296;28;20033;-75
2023/04/06 14:19:11;;;;;;;11.05;6.90;;;;;;;;;;5025961;28;20326;-75
2023/04/06 14:21:39;;;;;;;10.57;6.18;;;;;;;;;;5022279;28;20029;-74